Time;durP1;ratioP1;P1;durP2;ratioP2;P2;SDS_P1;SDS_P2;PMS_P1;PMS_P2;Temp;Humidity;BMP_temperature;BMP_pressure;BME280_temperature;BME280_humidity;BME280_pressure;Samples;Min_cycle;Max_cycle;Signal;HPM_P1;HPM_P2
2021/09/12 00:00:23;;;;;;;25.80;22.70;;;20.30;99.90;;;;;;2087888;28;20048;-68
2021/09/12 00:01:24;;;;;;;24.00;21.50;;;20.30;99.90;;;;;;2086204;28;20036;-68
2021/09/12 00:02:24;;;;;;;22.70;20.48;;;20.30;99.90;;;;;;2081665;28;20030;-68
2021/09/12 00:03:25;;;;;;;24.90;22.50;;;20.30;99.90;;;;;;2084654;28;20548;-68
2021/09/12 00:04:26;;;;;;;24.08;21.67;;;20.30;99.90;;;;;;2088040;28;20021;-68
2021/09/12 00:05:27;;;;;;;29.05;24.83;;;20.30;99.90;;;;;;2085611;28;20051;-68
2021/09/12 00:06:28;;;;;;;21.85;18.60;;;20.40;99.90;;;;;;2080491;28;20037;-68
2021/09/12 00:07:28;;;;;;;22.48;20.35;;;20.30;99.90;;;;;;2078569;28;20033;-68
2021/09/12 00:08:29;;;;;;;22.15;19.85;;;20.30;99.90;;;;;;2083835;28;20411;-69
2021/09/12 00:09:29;;;;;;;21.30;19.10;;;20.30;99.90;;;;;;2083278;28;20034;-68
2021/09/12 00:10:30;;;;;;;22.33;20.02;;;20.30;99.90;;;;;;2086821;28;20525;-68
2021/09/12 00:11:31;;;;;;;19.23;17.17;;;20.30;99.90;;;;;;2085178;28;20104;-68
2021/09/12 00:12:31;;;;;;;23.02;20.73;;;20.40;99.90;;;;;;2087746;28;20107;-69
2021/09/12 00:13:32;;;;;;;27.02;23.33;;;20.40;99.90;;;;;;2085282;28;20037;-68
2021/09/12 00:14:33;;;;;;;24.33;21.80;;;20.30;99.90;;;;;;2088118;28;20358;-68
2021/09/12 00:15:33;;;;;;;23.63;20.33;;;20.30;99.90;;;;;;2080364;28;20032;-68
2021/09/12 00:16:34;;;;;;;23.17;20.52;;;20.30;99.90;;;;;;2086861;28;20032;-68
2021/09/12 00:17:34;;;;;;;26.17;23.42;;;20.40;99.90;;;;;;2084068;28;20030;-68
2021/09/12 00:18:35;;;;;;;24.50;21.15;;;20.30;99.90;;;;;;2087198;28;20029;-68
2021/09/12 00:19:35;;;;;;;26.15;23.13;;;20.30;99.90;;;;;;2083171;28;20474;-68
2021/09/12 00:20:36;;;;;;;28.05;24.80;;;20.30;99.90;;;;;;2087191;28;20120;-68
2021/09/12 00:21:37;;;;;;;29.33;25.00;;;20.30;99.90;;;;;;2086886;28;20111;-68
2021/09/12 00:22:38;;;;;;;25.85;20.48;;;20.30;99.90;;;;;;2087579;28;20017;-68
2021/09/12 00:23:38;;;;;;;26.10;23.30;;;20.30;99.90;;;;;;2080527;28;20377;-68
2021/09/12 00:24:39;;;;;;;23.40;20.90;;;20.20;99.90;;;;;;2087612;28;20031;-68
2021/09/12 00:25:40;;;;;;;22.70;20.27;;;20.20;99.90;;;;;;2083459;28;20476;-68
2021/09/12 00:26:40;;;;;;;26.52;22.67;;;20.20;99.90;;;;;;2083537;28;20017;-68
2021/09/12 00:27:42;;;;;;;26.50;22.58;;;20.20;99.90;;;;;;2083304;28;20017;-68
2021/09/12 00:28:42;;;;;;;25.33;22.63;;;20.20;99.90;;;;;;2079672;28;20045;-68
2021/09/12 00:29:43;;;;;;;27.55;24.60;;;20.20;99.90;;;;;;2086381;28;20040;-68
2021/09/12 00:30:43;;;;;;;22.92;20.48;;;20.20;99.90;;;;;;2087981;28;20104;-68
2021/09/12 00:31:44;;;;;;;22.00;19.38;;;20.20;99.90;;;;;;2081384;28;20053;-68
2021/09/12 00:32:44;;;;;;;26.00;22.17;;;20.20;99.90;;;;;;2087204;28;20458;-68
2021/09/12 00:33:45;;;;;;;22.83;20.52;;;20.30;99.90;;;;;;2083313;28;20413;-68
2021/09/12 00:34:46;;;;;;;25.25;22.17;;;20.30;99.90;;;;;;2086842;28;20652;-68
2021/09/12 00:35:46;;;;;;;23.20;20.70;;;20.20;99.90;;;;;;2082773;28;20665;-68
2021/09/12 00:36:47;;;;;;;23.20;20.42;;;20.20;99.90;;;;;;2087382;28;20040;-68
2021/09/12 00:37:50;;;;;;;26.30;23.27;;;20.20;99.90;;;;;;2085812;28;20056;-68
2021/09/12 00:38:51;;;;;;;20.55;18.45;;;20.20;99.90;;;;;;2087606;28;20029;-68
2021/09/12 00:39:51;;;;;;;20.73;18.50;;;20.20;99.90;;;;;;2082178;28;20529;-68
2021/09/12 00:40:57;;;;;;;22.38;20.05;;;20.20;99.90;;;;;;2087092;28;20028;-68
2021/09/12 00:41:57;;;;;;;23.95;21.30;;;20.30;99.90;;;;;;2083134;28;20107;-68
2021/09/12 00:42:58;;;;;;;24.45;21.92;;;20.20;99.90;;;;;;2087440;28;20094;-68
2021/09/12 00:44:00;;;;;;;32.90;23.30;;;20.20;99.90;;;;;;2083353;28;20036;-68
2021/09/12 00:45:03;;;;;;;24.80;22.05;;;20.30;99.90;;;;;;2087712;28;20029;-68
2021/09/12 00:46:06;;;;;;;28.27;25.30;;;20.30;99.90;;;;;;2086746;28;20453;-68
2021/09/12 00:47:10;;;;;;;30.65;26.95;;;20.20;99.90;;;;;;2087216;28;20033;-68
2021/09/12 00:48:11;;;;;;;28.35;25.38;;;20.20;99.90;;;;;;2085323;28;20016;-68
2021/09/12 00:49:13;;;;;;;27.65;23.90;;;20.20;99.90;;;;;;2085103;28;20053;-68
2021/09/12 00:50:15;;;;;;;29.50;26.08;;;20.20;99.90;;;;;;2085602;28;20552;-68
2021/09/12 00:51:15;;;;;;;28.95;24.98;;;20.20;99.90;;;;;;2087860;28;20028;-68
2021/09/12 00:52:18;;;;;;;25.25;21.75;;;20.20;99.90;;;;;;2085827;28;20021;-68
2021/09/12 00:53:20;;;;;;;26.63;23.45;;;20.30;99.90;;;;;;2088131;28;20511;-68
2021/09/12 00:54:21;;;;;;;23.13;20.70;;;20.20;99.90;;;;;;2089066;28;20036;-68
2021/09/12 00:55:22;;;;;;;24.95;22.38;;;20.20;99.90;;;;;;2088319;28;20389;-68
2021/09/12 00:56:23;;;;;;;27.70;24.38;;;20.20;99.90;;;;;;2086851;28;20051;-68
2021/09/12 00:57:24;;;;;;;25.48;22.88;;;20.20;99.90;;;;;;2083675;28;20040;-68
2021/09/12 00:58:25;;;;;;;28.42;25.45;;;20.30;99.90;;;;;;2086551;28;20025;-68
2021/09/12 00:59:27;;;;;;;33.53;25.95;;;20.20;99.90;;;;;;2085194;28;20044;-68
2021/09/12 01:00:28;;;;;;;25.23;22.60;;;20.20;99.90;;;;;;2087253;28;20037;-68
2021/09/12 01:01:29;;;;;;;27.38;24.10;;;20.20;99.90;;;;;;2086422;28;20037;-68
2021/09/12 01:02:30;;;;;;;27.60;24.23;;;20.20;99.90;;;;;;2087575;28;20025;-68
2021/09/12 01:03:30;;;;;;;23.88;20.90;;;20.20;99.90;;;;;;2087110;28;20025;-68
2021/09/12 01:04:32;;;;;;;25.80;22.45;;;20.20;99.90;;;;;;2087881;28;20043;-68
2021/09/12 01:05:33;;;;;;;22.35;20.02;;;20.20;99.90;;;;;;2084049;28;20034;-68
2021/09/12 01:06:33;;;;;;;22.38;19.98;;;20.20;99.90;;;;;;2080772;28;20018;-68
2021/09/12 01:07:34;;;;;;;31.15;20.00;;;20.20;99.90;;;;;;2083454;28;20025;-68
2021/09/12 01:08:35;;;;;;;21.80;19.42;;;20.20;99.90;;;;;;2085565;28;20029;-68
2021/09/12 01:09:37;;;;;;;25.17;21.58;;;20.20;99.90;;;;;;2080991;28;20026;-68
2021/09/12 01:10:40;;;;;;;24.15;17.90;;;20.20;99.90;;;;;;2081043;28;20026;-68
2021/09/12 01:11:41;;;;;;;21.73;19.40;;;20.20;99.90;;;;;;2084346;28;20104;-68
2021/09/12 01:12:41;;;;;;;24.05;20.92;;;20.20;99.90;;;;;;2080594;28;20080;-68
2021/09/12 01:13:43;;;;;;;19.60;17.55;;;20.20;99.90;;;;;;2080169;28;20100;-68
2021/09/12 01:14:43;;;;;;;22.52;20.20;;;20.20;99.90;;;;;;2080833;28;20068;-68
2021/09/12 01:15:45;;;;;;;25.35;22.75;;;20.20;99.90;;;;;;2080835;28;20041;-68
2021/09/12 01:16:46;;;;;;;23.30;20.17;;;20.20;99.90;;;;;;2081042;28;20041;-68
2021/09/12 01:17:46;;;;;;;25.27;21.65;;;20.20;99.90;;;;;;2080691;28;20037;-68
2021/09/12 01:18:47;;;;;;;22.17;18.98;;;20.20;99.90;;;;;;2081103;28;20030;-68
2021/09/12 01:19:48;;;;;;;25.35;22.63;;;20.20;99.90;;;;;;2088885;28;20082;-68
2021/09/12 01:20:49;;;;;;;24.75;22.15;;;20.20;99.90;;;;;;2088916;28;20033;-68
2021/09/12 01:21:58;;;;;;;26.30;23.52;;;20.20;99.90;;;;;;2082753;28;20441;-68
2021/09/12 01:22:59;;;;;;;26.52;23.65;;;20.20;99.90;;;;;;2080452;28;20022;-68
2021/09/12 01:23:59;;;;;;;26.45;23.25;;;20.20;99.90;;;;;;2082328;28;20032;-68
2021/09/12 01:25:00;;;;;;;27.73;23.50;;;20.20;99.90;;;;;;2080482;28;20029;-68
2021/09/12 01:26:00;;;;;;;27.30;24.40;;;20.20;99.90;;;;;;2080683;28;20036;-68
2021/09/12 01:27:01;;;;;;;26.25;23.13;;;20.20;99.90;;;;;;2080693;28;20040;-68
2021/09/12 01:28:04;;;;;;;28.77;25.10;;;20.20;99.90;;;;;;2080883;28;20060;-68
2021/09/12 01:29:04;;;;;;;27.80;24.77;;;20.20;99.90;;;;;;2080464;28;20014;-68
2021/09/12 01:30:05;;;;;;;27.23;24.33;;;20.20;99.90;;;;;;2080728;28;20101;-68
2021/09/12 01:31:06;;;;;;;24.63;21.85;;;20.20;99.90;;;;;;2080920;28;20381;-68
2021/09/12 01:32:07;;;;;;;23.25;20.55;;;20.20;99.90;;;;;;2080411;28;20036;-68
2021/09/12 01:33:08;;;;;;;28.55;25.55;;;20.20;99.90;;;;;;2080272;28;20028;-68
2021/09/12 01:34:09;;;;;;;27.98;23.08;;;20.20;99.90;;;;;;2080290;28;20108;-68
2021/09/12 01:35:10;;;;;;;29.42;25.73;;;20.20;99.90;;;;;;2084859;28;20396;-68
2021/09/12 01:36:10;;;;;;;28.67;25.40;;;20.20;99.90;;;;;;2085592;28;20024;-68
2021/09/12 01:37:11;;;;;;;31.70;26.23;;;20.20;99.90;;;;;;2080531;28;20021;-68
2021/09/12 01:38:12;;;;;;;29.40;26.02;;;20.20;99.90;;;;;;2080307;28;20030;-68
2021/09/12 01:39:12;;;;;;;28.40;25.52;;;20.10;99.90;;;;;;2085785;28;20025;-68
2021/09/12 01:40:13;;;;;;;29.17;24.48;;;20.20;99.90;;;;;;2081697;28;20127;-68
2021/09/12 01:41:14;;;;;;;27.33;24.38;;;20.10;99.90;;;;;;2084207;28;20028;-68
2021/09/12 01:42:14;;;;;;;22.17;19.48;;;20.20;99.90;;;;;;2080255;28;20030;-68
2021/09/12 01:43:20;;;;;;;27.95;24.80;;;20.10;99.90;;;;;;2080454;28;20045;-68
2021/09/12 01:44:26;;;;;;;27.63;24.70;;;20.20;99.90;;;;;;2080534;28;20136;-68
2021/09/12 01:45:26;;;;;;;26.77;23.98;;;20.10;99.90;;;;;;2082245;28;20064;-68
2021/09/12 01:46:27;;;;;;;25.25;22.65;;;20.10;99.90;;;;;;2080472;28;20480;-68
2021/09/12 01:47:28;;;;;;;27.20;24.20;;;20.10;99.90;;;;;;2080924;28;20022;-68
2021/09/12 01:48:28;;;;;;;27.55;24.23;;;20.10;99.90;;;;;;2080640;28;20060;-68
2021/09/12 01:49:29;;;;;;;27.45;24.58;;;20.10;99.90;;;;;;2080558;28;20033;-68
2021/09/12 01:50:30;;;;;;;28.92;26.02;;;20.10;99.90;;;;;;2080549;28;20048;-68
2021/09/12 01:51:30;;;;;;;25.65;22.73;;;20.10;99.90;;;;;;2080609;28;20687;-68
2021/09/12 01:52:31;;;;;;;27.60;24.85;;;20.10;99.90;;;;;;2080503;28;20057;-68
2021/09/12 01:53:32;;;;;;;28.33;25.42;;;20.10;99.90;;;;;;2081230;28;20037;-68
2021/09/12 01:54:33;;;;;;;31.98;27.00;;;20.10;99.90;;;;;;2086483;28;20036;-68
2021/09/12 01:55:34;;;;;;;29.30;26.20;;;20.10;99.90;;;;;;2085995;28;20072;-68
2021/09/12 01:56:34;;;;;;;25.80;23.10;;;20.10;99.90;;;;;;2080293;28;20420;-68
2021/09/12 01:57:35;;;;;;;23.52;21.08;;;20.10;99.90;;;;;;2083531;28;20045;-68
2021/09/12 01:58:37;;;;;;;24.85;22.15;;;20.10;99.90;;;;;;2093784;28;20400;-68
2021/09/12 01:59:37;;;;;;;21.55;19.23;;;20.00;99.90;;;;;;2079872;28;20037;-68
2021/09/12 02:00:38;;;;;;;24.98;21.92;;;20.00;99.90;;;;;;2080535;28;20033;-68
2021/09/12 02:01:38;;;;;;;25.20;21.80;;;20.10;99.90;;;;;;2081454;28;20029;-68
2021/09/12 02:02:39;;;;;;;25.25;22.75;;;20.00;99.90;;;;;;2079927;28;20497;-68
2021/09/12 02:03:39;;;;;;;26.13;23.33;;;20.10;99.90;;;;;;2083482;28;20017;-68
2021/09/12 02:04:40;;;;;;;27.35;23.48;;;20.00;99.90;;;;;;2081625;28;20090;-68
2021/09/12 02:05:41;;;;;;;22.73;20.40;;;20.00;99.90;;;;;;2087502;28;20455;-68
2021/09/12 02:06:41;;;;;;;25.92;22.77;;;20.00;99.90;;;;;;2089080;28;20029;-68
2021/09/12 02:07:42;;;;;;;23.48;21.00;;;20.00;99.90;;;;;;2087833;28;20025;-68
2021/09/12 02:08:42;;;;;;;26.10;23.35;;;20.00;99.90;;;;;;2089822;28;20024;-68
2021/09/12 02:09:43;;;;;;;26.90;23.92;;;20.00;99.90;;;;;;2081835;28;20110;-68
2021/09/12 02:10:44;;;;;;;27.52;24.55;;;20.00;99.90;;;;;;2089437;28;20400;-69
2021/09/12 02:11:44;;;;;;;27.52;24.52;;;20.00;99.90;;;;;;2083903;28;20496;-68
2021/09/12 02:12:45;;;;;;;28.65;24.75;;;20.00;99.90;;;;;;2083256;28;20419;-68
2021/09/12 02:13:45;;;;;;;22.75;20.40;;;20.00;99.90;;;;;;2087991;28;20028;-68
2021/09/12 02:14:46;;;;;;;25.50;22.70;;;20.00;99.90;;;;;;2090470;28;20104;-68
2021/09/12 02:15:47;;;;;;;22.67;20.02;;;20.00;99.90;;;;;;2089465;28;20130;-68
2021/09/12 02:16:48;;;;;;;20.80;18.70;;;20.00;99.90;;;;;;2085111;28;20033;-68
2021/09/12 02:17:48;;;;;;;23.30;20.83;;;20.00;99.90;;;;;;2088684;28;20025;-68
2021/09/12 02:18:49;;;;;;;24.42;20.35;;;20.00;99.90;;;;;;2082116;28;20664;-68
2021/09/12 02:19:50;;;;;;;24.45;21.98;;;20.00;99.90;;;;;;2081396;28;20033;-68
2021/09/12 02:20:50;;;;;;;23.92;21.42;;;20.00;99.90;;;;;;2081903;28;20033;-68
2021/09/12 02:21:51;;;;;;;24.45;21.88;;;20.00;99.90;;;;;;2087596;28;20052;-68
2021/09/12 02:22:51;;;;;;;27.75;24.15;;;19.90;99.90;;;;;;2088782;28;20035;-68
2021/09/12 02:23:52;;;;;;;26.88;22.65;;;20.00;99.90;;;;;;2081519;28;20389;-68
2021/09/12 02:24:53;;;;;;;26.15;22.65;;;19.90;99.90;;;;;;2081706;28;20049;-68
2021/09/12 02:25:53;;;;;;;25.48;22.77;;;20.00;99.90;;;;;;2081555;28;20029;-68
2021/09/12 02:26:54;;;;;;;24.35;21.85;;;19.90;99.90;;;;;;2081749;28;20028;-68
2021/09/12 02:27:54;;;;;;;23.63;21.20;;;20.00;99.90;;;;;;2081405;28;20068;-68
2021/09/12 02:28:55;;;;;;;26.50;23.67;;;19.90;99.90;;;;;;2081352;28;20111;-68
2021/09/12 02:29:55;;;;;;;27.58;23.33;;;19.90;99.90;;;;;;2082669;28;20409;-68
2021/09/12 02:30:56;;;;;;;27.25;23.10;;;19.90;99.90;;;;;;2089794;28;20028;-68
2021/09/12 02:31:56;;;;;;;25.48;22.85;;;19.90;99.90;;;;;;2081468;28;20417;-68
2021/09/12 02:32:57;;;;;;;26.33;23.08;;;19.90;99.90;;;;;;2081189;28;20029;-68
2021/09/12 02:33:57;;;;;;;25.83;23.02;;;19.90;99.90;;;;;;2081501;28;20022;-68
2021/09/12 02:34:59;;;;;;;24.58;21.98;;;19.90;99.90;;;;;;2088156;28;20051;-68
2021/09/12 02:36:01;;;;;;;19.40;17.40;;;19.90;99.90;;;;;;2084659;28;20050;-68
2021/09/12 02:37:02;;;;;;;21.00;18.88;;;19.90;99.90;;;;;;2081593;28;20022;-68
2021/09/12 02:38:03;;;;;;;20.67;18.35;;;19.90;99.90;;;;;;2081681;28;20057;-68
2021/09/12 02:39:03;;;;;;;21.45;19.15;;;19.80;99.90;;;;;;2081200;28;20029;-68
2021/09/12 02:40:04;;;;;;;20.05;18.02;;;19.90;99.90;;;;;;2081661;28;20075;-68
2021/09/12 02:41:05;;;;;;;23.33;20.73;;;19.80;99.90;;;;;;2085782;28;20347;-68
2021/09/12 02:42:06;;;;;;;22.92;20.33;;;19.80;99.90;;;;;;2081277;28;20080;-68
2021/09/12 02:43:07;;;;;;;26.58;22.55;;;19.80;99.90;;;;;;2080915;28;20018;-68
2021/09/12 02:44:07;;;;;;;24.02;21.45;;;19.80;99.90;;;;;;2081420;28;20025;-70
2021/09/12 02:45:09;;;;;;;23.92;21.35;;;19.80;99.90;;;;;;2081168;28;20446;-68
2021/09/12 02:46:10;;;;;;;24.23;19.75;;;19.70;99.90;;;;;;2083999;28;20044;-68
2021/09/12 02:47:11;;;;;;;21.55;19.25;;;19.70;99.90;;;;;;2084281;28;20019;-68
2021/09/12 02:48:11;;;;;;;26.77;21.30;;;19.70;99.90;;;;;;2081642;28;20021;-68
2021/09/12 02:49:12;;;;;;;23.88;19.25;;;19.70;99.90;;;;;;2081908;28;20028;-68
2021/09/12 02:50:12;;;;;;;23.88;21.48;;;19.70;99.90;;;;;;2089674;28;20071;-68
2021/09/12 02:51:13;;;;;;;25.55;21.15;;;19.70;99.90;;;;;;2082819;28;20120;-68
2021/09/12 02:52:13;;;;;;;24.95;22.27;;;19.60;99.90;;;;;;2081178;28;20105;-68
2021/09/12 02:53:14;;;;;;;27.13;22.00;;;19.70;99.90;;;;;;2080986;28;20033;-68
2021/09/12 02:54:14;;;;;;;26.30;21.45;;;19.60;99.90;;;;;;2081192;28;20029;-68
2021/09/12 02:55:15;;;;;;;25.58;22.30;;;19.60;99.90;;;;;;2081280;28;20496;-68
2021/09/12 02:56:16;;;;;;;26.40;21.60;;;19.60;99.90;;;;;;2081296;28;20017;-68
2021/09/12 02:57:16;;;;;;;22.60;18.95;;;19.60;99.90;;;;;;2081246;28;20026;-68
2021/09/12 02:58:17;;;;;;;21.95;18.23;;;19.60;99.90;;;;;;2081474;28;20056;-70
2021/09/12 02:59:17;;;;;;;25.80;21.90;;;19.60;99.90;;;;;;2081137;28;20104;-68
2021/09/12 03:00:18;;;;;;;23.73;20.65;;;19.50;99.90;;;;;;2081387;28;20055;-68
2021/09/12 03:01:18;;;;;;;22.08;19.08;;;19.50;99.90;;;;;;2081333;28;20442;-70
2021/09/12 03:02:19;;;;;;;23.08;19.58;;;19.50;99.90;;;;;;2079745;28;20053;-70
2021/09/12 03:03:19;;;;;;;22.90;20.45;;;19.50;99.90;;;;;;2080955;28;20520;-70
2021/09/12 03:04:20;;;;;;;23.58;21.00;;;19.50;99.90;;;;;;2080781;28;20029;-70
2021/09/12 03:05:21;;;;;;;22.52;20.23;;;19.50;99.90;;;;;;2080172;28;20036;-70
2021/09/12 03:06:21;;;;;;;19.38;16.77;;;19.40;99.90;;;;;;2080573;28;20045;-70
2021/09/12 03:07:22;;;;;;;27.20;20.90;;;19.40;99.90;;;;;;2080119;28;20104;-69
2021/09/12 03:08:22;;;;;;;22.95;20.63;;;19.40;99.90;;;;;;2080336;28;20076;-70
2021/09/12 03:09:23;;;;;;;20.90;18.38;;;19.40;99.90;;;;;;2080627;28;20118;-70
2021/09/12 03:10:23;;;;;;;22.63;18.63;;;19.40;99.90;;;;;;2079482;28;20044;-70
2021/09/12 03:11:24;;;;;;;23.15;19.52;;;19.40;99.90;;;;;;2078461;28;20052;-70
2021/09/12 03:12:25;;;;;;;22.25;17.90;;;19.30;99.90;;;;;;2079630;28;20022;-70
2021/09/12 03:13:25;;;;;;;17.67;15.93;;;19.30;99.90;;;;;;2079739;28;20029;-70
2021/09/12 03:14:26;;;;;;;20.55;18.30;;;19.30;99.90;;;;;;2079669;28;20534;-70
2021/09/12 03:15:27;;;;;;;26.92;20.75;;;19.30;99.90;;;;;;2079348;28;20038;-70
2021/09/12 03:16:27;;;;;;;18.95;16.98;;;19.30;99.90;;;;;;2079369;28;20069;-71
2021/09/12 03:17:28;;;;;;;26.10;19.65;;;19.30;99.90;;;;;;2082255;28;20710;-70
2021/09/12 03:18:29;;;;;;;29.55;21.77;;;19.30;99.90;;;;;;2083881;28;20071;-70
2021/09/12 03:19:29;;;;;;;19.90;17.77;;;19.20;99.90;;;;;;2079991;28;20029;-70
2021/09/12 03:20:30;;;;;;;25.58;21.23;;;19.30;99.90;;;;;;2079723;28;20026;-71
2021/09/12 03:21:31;;;;;;;24.73;19.52;;;19.20;99.90;;;;;;2081476;28;20063;-71
2021/09/12 03:22:31;;;;;;;23.00;20.00;;;19.20;99.90;;;;;;2079733;28;20061;-71
2021/09/12 03:23:32;;;;;;;27.95;20.25;;;19.20;99.90;;;;;;2078672;28;20063;-70
2021/09/12 03:24:33;;;;;;;21.27;19.00;;;19.20;99.90;;;;;;2079117;28;20052;-70
2021/09/12 03:25:33;;;;;;;21.63;18.15;;;19.20;99.90;;;;;;2080034;28;20025;-70
2021/09/12 03:26:34;;;;;;;23.27;19.38;;;19.20;99.90;;;;;;2079555;28;20091;-70
2021/09/12 03:27:34;;;;;;;20.17;18.05;;;19.20;99.90;;;;;;2080112;28;20025;-70
2021/09/12 03:28:36;;;;;;;24.00;20.30;;;19.20;99.90;;;;;;2079803;28;20140;-70
2021/09/12 03:29:36;;;;;;;25.17;19.92;;;19.20;99.90;;;;;;2079556;28;20037;-70
2021/09/12 03:30:37;;;;;;;21.38;18.15;;;19.10;99.90;;;;;;2079781;28;20036;-70
2021/09/12 03:31:37;;;;;;;24.45;19.08;;;19.20;99.90;;;;;;2082446;28;20048;-70
2021/09/12 03:32:38;;;;;;;25.60;22.00;;;19.20;99.90;;;;;;2087216;28;20123;-70
2021/09/12 03:33:38;;;;;;;24.60;19.75;;;19.10;99.90;;;;;;2079796;28;20045;-70
2021/09/12 03:34:39;;;;;;;25.48;20.48;;;19.20;99.90;;;;;;2086044;28;20064;-70
2021/09/12 03:35:40;;;;;;;20.58;17.45;;;19.10;99.90;;;;;;2087980;28;20055;-70
2021/09/12 03:36:41;;;;;;;25.33;21.33;;;19.10;99.90;;;;;;2079543;28;20029;-70
2021/09/12 03:37:41;;;;;;;25.95;20.00;;;19.10;99.90;;;;;;2085756;28;20036;-70
2021/09/12 03:38:42;;;;;;;24.33;18.40;;;19.10;99.90;;;;;;2080117;28;20029;-70
2021/09/12 03:39:42;;;;;;;27.63;22.00;;;19.10;99.90;;;;;;2079710;28;20029;-70
2021/09/12 03:40:43;;;;;;;22.23;18.60;;;19.10;99.90;;;;;;2083974;28;20017;-71
2021/09/12 03:41:44;;;;;;;22.60;19.35;;;19.10;99.90;;;;;;2079407;28;20037;-71
2021/09/12 03:42:44;;;;;;;29.42;21.20;;;19.10;99.90;;;;;;2079396;28;20036;-71
2021/09/12 03:43:45;;;;;;;26.17;21.00;;;19.10;99.90;;;;;;2079859;28;20033;-70
2021/09/12 03:44:45;;;;;;;24.60;20.55;;;19.10;99.90;;;;;;2083882;28;20028;-70
2021/09/12 03:45:46;;;;;;;23.88;19.10;;;19.10;99.90;;;;;;2086524;28;20029;-70
2021/09/12 03:46:47;;;;;;;19.85;17.75;;;19.10;99.90;;;;;;2087955;28;20036;-70
2021/09/12 03:47:47;;;;;;;25.48;22.15;;;19.10;99.90;;;;;;2082633;28;20053;-70
2021/09/12 03:48:48;;;;;;;26.73;22.35;;;19.10;99.90;;;;;;2080004;28;20032;-70
2021/09/12 03:49:48;;;;;;;22.90;19.42;;;19.10;99.90;;;;;;2079173;28;20053;-70
2021/09/12 03:50:49;;;;;;;22.30;17.83;;;19.10;99.90;;;;;;2079078;28;20026;-70
2021/09/12 03:51:49;;;;;;;25.52;20.90;;;19.10;99.90;;;;;;2079438;28;20018;-70
2021/09/12 03:52:50;;;;;;;24.08;18.70;;;19.10;99.90;;;;;;2079206;28;20037;-70
2021/09/12 03:53:51;;;;;;;25.20;21.23;;;19.10;99.90;;;;;;2079769;28;20025;-70
2021/09/12 03:54:51;;;;;;;31.08;21.92;;;19.10;99.90;;;;;;2079853;28;20025;-70
2021/09/12 03:55:52;;;;;;;28.55;21.58;;;19.10;99.90;;;;;;2079296;28;20032;-70
2021/09/12 03:56:52;;;;;;;28.27;22.85;;;19.10;99.90;;;;;;2083158;28;20036;-70
2021/09/12 03:57:53;;;;;;;25.45;22.67;;;19.10;99.90;;;;;;2083500;28;20124;-70
2021/09/12 03:58:53;;;;;;;28.23;21.85;;;19.10;99.90;;;;;;2089612;28;20489;-70
2021/09/12 03:59:54;;;;;;;27.63;20.17;;;19.00;99.90;;;;;;2095502;28;20439;-70
2021/09/12 04:00:54;;;;;;;25.40;20.52;;;19.10;99.90;;;;;;2083665;28;20103;-70
2021/09/12 04:01:55;;;;;;;28.92;21.55;;;19.00;99.90;;;;;;2079572;28;20029;-70
2021/09/12 04:02:55;;;;;;;24.33;19.15;;;19.00;99.90;;;;;;2083449;28;20397;-70
2021/09/12 04:03:56;;;;;;;23.58;20.50;;;19.00;99.90;;;;;;2083427;28;20041;-70
2021/09/12 04:04:56;;;;;;;23.27;20.20;;;19.00;99.90;;;;;;2079981;28;20033;-70
2021/09/12 04:05:57;;;;;;;22.98;19.90;;;19.00;99.90;;;;;;2079361;28;20551;-70
2021/09/12 04:06:57;;;;;;;24.90;18.92;;;19.00;99.90;;;;;;2079652;28;20053;-70
2021/09/12 04:07:58;;;;;;;23.90;20.42;;;19.00;99.90;;;;;;2079571;28;20111;-70
2021/09/12 04:08:58;;;;;;;22.35;20.00;;;19.00;99.90;;;;;;2079731;28;20030;-70
2021/09/12 04:09:59;;;;;;;23.55;19.77;;;19.10;99.90;;;;;;2079668;28;20029;-70
2021/09/12 04:11:00;;;;;;;20.85;18.40;;;19.00;99.90;;;;;;2079562;28;20028;-70
2021/09/12 04:12:00;;;;;;;29.25;22.88;;;19.00;99.90;;;;;;2078439;28;20022;-70
2021/09/12 04:13:01;;;;;;;21.55;18.45;;;19.00;99.90;;;;;;2080155;28;20017;-70
2021/09/12 04:14:02;;;;;;;28.55;22.95;;;19.00;99.90;;;;;;2079718;28;20441;-71
2021/09/12 04:15:03;;;;;;;23.75;20.02;;;19.00;99.90;;;;;;2079567;28;20038;-71
2021/09/12 04:16:04;;;;;;;23.80;19.08;;;19.00;99.90;;;;;;2079681;28;20126;-71
2021/09/12 04:17:04;;;;;;;30.02;22.73;;;19.00;99.90;;;;;;2079409;28;20075;-70
2021/09/12 04:18:05;;;;;;;27.67;21.85;;;19.00;99.90;;;;;;2079738;28;20458;-70
2021/09/12 04:19:06;;;;;;;27.15;19.70;;;19.00;99.90;;;;;;2079684;28;20064;-70
2021/09/12 04:20:07;;;;;;;26.90;19.88;;;19.00;99.90;;;;;;2079837;28;20017;-70
2021/09/12 04:21:08;;;;;;;24.25;21.70;;;19.00;99.90;;;;;;2080600;28;20385;-70
2021/09/12 04:22:08;;;;;;;29.38;23.90;;;19.00;99.90;;;;;;2079918;28;20072;-70
2021/09/12 04:23:09;;;;;;;25.30;21.67;;;19.00;99.90;;;;;;2080876;28;20018;-70
2021/09/12 04:24:09;;;;;;;25.92;21.27;;;19.00;99.90;;;;;;2081533;28;20485;-70
2021/09/12 04:25:10;;;;;;;26.10;21.17;;;19.00;99.90;;;;;;2080777;28;20037;-70
2021/09/12 04:26:11;;;;;;;33.70;27.13;;;19.00;99.90;;;;;;2080970;28;20013;-70
2021/09/12 04:27:11;;;;;;;36.38;27.27;;;19.00;99.90;;;;;;2081513;28;20101;-70
2021/09/12 04:28:12;;;;;;;31.92;25.95;;;19.00;99.90;;;;;;2081422;28;20417;-70
2021/09/12 04:29:13;;;;;;;28.67;22.55;;;19.00;99.90;;;;;;2081103;28;20493;-70
2021/09/12 04:30:15;;;;;;;27.98;22.45;;;18.90;99.90;;;;;;2081315;28;20045;-70
2021/09/12 04:31:15;;;;;;;29.90;23.30;;;19.00;99.90;;;;;;2081169;28;20342;-70
2021/09/12 04:32:16;;;;;;;27.80;22.23;;;18.90;99.90;;;;;;2081194;28;20052;-70
2021/09/12 04:33:16;;;;;;;33.80;24.60;;;18.90;99.90;;;;;;2080937;28;20381;-70
2021/09/12 04:34:17;;;;;;;27.92;22.80;;;18.90;99.90;;;;;;2082418;28;20041;-70
2021/09/12 04:35:17;;;;;;;29.50;21.98;;;18.90;99.90;;;;;;2089091;28;20520;-70
2021/09/12 04:36:18;;;;;;;20.35;17.75;;;18.90;99.90;;;;;;2089222;28;20108;-70
2021/09/12 04:37:19;;;;;;;24.92;21.60;;;18.90;99.90;;;;;;2089307;28;20481;-70
2021/09/12 04:38:19;;;;;;;32.00;23.77;;;18.90;99.90;;;;;;2089552;28;20388;-70
2021/09/12 04:39:20;;;;;;;28.17;23.88;;;18.90;99.90;;;;;;2089220;28;20047;-70
2021/09/12 04:40:20;;;;;;;24.77;22.08;;;18.90;99.90;;;;;;2089430;28;20425;-70
2021/09/12 04:41:21;;;;;;;27.17;22.35;;;18.90;99.90;;;;;;2082534;28;20036;-71
2021/09/12 04:42:21;;;;;;;22.58;18.85;;;18.90;99.90;;;;;;2081410;28;20029;-70
2021/09/12 04:43:22;;;;;;;24.45;21.80;;;18.90;99.90;;;;;;2080914;28;20017;-70
2021/09/12 04:44:23;;;;;;;23.27;20.40;;;18.90;99.90;;;;;;2080922;28;20028;-70
2021/09/12 04:45:23;;;;;;;24.00;20.65;;;18.90;99.90;;;;;;2082156;28;20029;-70
2021/09/12 04:46:24;;;;;;;27.48;23.13;;;18.90;99.90;;;;;;2081925;28;20328;-70
2021/09/12 04:47:24;;;;;;;27.98;21.27;;;18.90;99.90;;;;;;2080939;28;20029;-70
2021/09/12 04:48:25;;;;;;;24.85;20.42;;;18.90;99.90;;;;;;2081410;28;20022;-70
2021/09/12 04:49:26;;;;;;;27.30;20.10;;;18.90;99.90;;;;;;2081089;28;20018;-70
2021/09/12 04:50:26;;;;;;;27.55;20.10;;;18.90;99.90;;;;;;2081044;28;20032;-70
2021/09/12 04:51:27;;;;;;;19.65;16.42;;;18.90;99.90;;;;;;2081162;28;20048;-70
2021/09/12 04:52:27;;;;;;;27.58;20.00;;;18.90;99.90;;;;;;2080745;28;20033;-70
2021/09/12 04:53:28;;;;;;;28.30;21.08;;;18.90;99.90;;;;;;2080873;28;20033;-70
2021/09/12 04:54:28;;;;;;;26.38;21.02;;;18.90;99.90;;;;;;2080957;28;20087;-71
2021/09/12 04:55:29;;;;;;;30.10;22.35;;;18.90;99.90;;;;;;2086756;28;20035;-71
2021/09/12 04:56:30;;;;;;;22.02;17.83;;;18.90;99.90;;;;;;2080814;28;20367;-71
2021/09/12 04:57:30;;;;;;;21.00;17.73;;;18.90;99.90;;;;;;2080723;28;20485;-71
2021/09/12 04:58:31;;;;;;;20.92;18.73;;;18.90;99.90;;;;;;2080845;28;20049;-71
2021/09/12 04:59:33;;;;;;;23.50;17.90;;;18.90;99.90;;;;;;2095050;28;20032;-71
2021/09/12 05:00:34;;;;;;;19.08;16.30;;;18.90;99.90;;;;;;2086744;28;20029;-71
2021/09/12 05:01:34;;;;;;;23.40;18.85;;;18.90;99.90;;;;;;2096013;28;20546;-71
2021/09/12 05:02:35;;;;;;;19.67;17.55;;;18.90;99.90;;;;;;2084136;28;20033;-70
2021/09/12 05:03:35;;;;;;;23.33;19.08;;;18.90;99.90;;;;;;2080819;28;20378;-71
2021/09/12 05:04:36;;;;;;;21.33;17.50;;;18.80;99.90;;;;;;2080873;28;20037;-71
2021/09/12 05:05:36;;;;;;;19.08;15.88;;;18.80;99.90;;;;;;2080801;28;20049;-71
2021/09/12 05:06:37;;;;;;;20.63;17.35;;;18.80;99.90;;;;;;2080836;28;20489;-70
2021/09/12 05:07:38;;;;;;;23.55;19.65;;;18.80;99.90;;;;;;2081040;28;20375;-70
2021/09/12 05:08:38;;;;;;;23.60;19.25;;;18.80;99.90;;;;;;2080992;28;20100;-70